Time;durP1;ratioP1;P1;durP2;ratioP2;P2;SDS_P1;SDS_P2;PMS_P1;PMS_P2;Temp;Humidity;BMP_temperature;BMP_pressure;BME280_temperature;BME280_humidity;BME280_pressure;Samples;Min_cycle;Max_cycle;Signal;HPM_P1;HPM_P2
2021/04/18 00:00:19;;;;;;;10.02;5.45;;;;;;;10.87;47.50;100740.66;4917214;29;20449;-80
2021/04/18 00:03:04;;;;;;;11.30;7.85;;;;;;;10.90;47.38;100748.19;4927740;29;20047;-79
2021/04/18 00:05:50;;;;;;;12.50;7.40;;;;;;;10.93;46.88;100742.91;4927127;29;20055;-80
2021/04/18 00:08:34;;;;;;;10.77;5.38;;;;;;;10.93;45.74;100742.91;4919962;29;20036;-80
2021/04/18 00:11:20;;;;;;;8.10;5.15;;;;;;;10.93;46.29;100740.19;4915688;29;20048;-80
2021/04/18 00:14:07;;;;;;;10.10;6.57;;;;;;;11.03;45.93;100736.34;4923663;29;20054;-80
2021/04/18 00:16:52;;;;;;;9.23;6.10;;;;;;;10.96;45.96;100739.56;4916852;29;20040;-80
2021/04/18 00:19:38;;;;;;;9.55;6.15;;;;;;;11.06;45.88;100731.09;4915860;29;20051;-79
2021/04/18 00:22:23;;;;;;;9.05;6.22;;;;;;;11.08;46.15;100730.75;4909302;29;20523;-80
2021/04/18 00:25:10;;;;;;;7.32;4.05;;;;;;;11.15;44.75;100729.19;4915850;29;20051;-78
2021/04/18 00:27:56;;;;;;;7.32;5.50;;;;;;;11.14;45.25;100733.00;4928462;29;20413;-80
2021/04/18 00:30:41;;;;;;;9.18;5.47;;;;;;;11.12;44.91;100729.03;4928732;29;20535;-79
2021/04/18 00:33:26;;;;;;;6.28;3.25;;;;;;;11.14;43.91;100730.28;4926578;29;20047;-80
2021/04/18 00:36:11;;;;;;;7.63;5.10;;;;;;;11.12;44.08;100731.75;4915217;29;20051;-80
2021/04/18 00:38:56;;;;;;;6.13;4.30;;;;;;;11.17;43.27;100728.06;4914064;29;20547;-80
2021/04/18 00:41:41;;;;;;;4.18;3.22;;;;;;;11.21;45.28;100737.19;4915321;29;20059;-79
2021/04/18 00:44:26;;;;;;;6.78;3.45;;;;;;;11.14;43.38;100727.56;4915685;29;20047;-80
2021/04/18 00:47:12;;;;;;;6.00;3.03;;;;;;;11.10;43.06;100729.34;4927110;29;20075;-79
2021/04/18 00:49:58;;;;;;;6.78;4.75;;;;;;;11.13;43.71;100728.69;4918062;29;20051;-79
2021/04/18 00:52:42;;;;;;;6.88;4.28;;;;;;;11.11;42.96;100721.97;4913323;29;20051;-80
2021/04/18 00:55:28;;;;;;;5.55;3.88;;;;;;;11.18;42.97;100727.72;4913204;29;20039;-80
2021/04/18 00:58:13;;;;;;;5.22;3.97;;;;;;;11.18;42.81;100724.19;4903371;29;20055;-79
2021/04/18 01:00:58;;;;;;;3.90;2.83;;;;;;;11.09;42.88;100724.19;4927892;29;20043;-80
2021/04/18 01:03:43;;;;;;;6.88;3.70;;;;;;;11.08;43.23;100717.94;4913118;29;20085;-79
2021/04/18 01:06:28;;;;;;;9.20;2.67;;;;;;;11.13;42.61;100727.88;4911481;29;20047;-80
2021/04/18 01:09:13;;;;;;;7.25;4.03;;;;;;;11.13;43.04;100723.25;4927693;29;20524;-79
2021/04/18 01:11:59;;;;;;;5.15;4.40;;;;;;;11.07;42.93;100721.78;4913772;29;20063;-77
2021/04/18 01:14:43;;;;;;;3.30;2.50;;;;;;;11.15;42.52;100720.22;4912122;29;20043;-79
2021/04/18 01:17:29;;;;;;;6.45;3.85;;;;;;;11.07;42.51;100716.34;4912813;29;20051;-79
2021/04/18 01:20:21;;;;;;;5.13;3.10;;;;;;;11.05;42.71;100713.16;4911826;29;20054;-80
2021/04/18 01:23:11;;;;;;;5.97;4.43;;;;;;;11.06;43.12;100711.25;4937117;29;20055;-80
2021/04/18 01:26:29;;;;;;;5.32;3.45;;;;;;;11.07;43.43;100710.91;4913435;29;20050;-80
2021/04/18 01:29:16;;;;;;;6.25;3.55;;;;;;;11.05;43.03;100713.16;4912541;29;20054;-79
2021/04/18 01:32:01;;;;;;;5.57;4.25;;;;;;;11.00;43.17;100707.88;4914362;29;20051;-80
2021/04/18 01:34:47;;;;;;;5.15;3.10;;;;;;;10.98;43.26;100706.56;4913015;29;20498;-80
2021/04/18 01:37:32;;;;;;;9.50;2.90;;;;;;;10.99;43.70;100708.97;4913470;29;20063;-79
2021/04/18 01:40:21;;;;;;;5.68;4.05;;;;;;;10.99;43.84;100708.97;4925554;29;20043;-80
2021/04/18 01:43:05;;;;;;;6.25;3.90;;;;;;;10.97;42.99;100705.75;4915897;29;20051;-79
2021/04/18 01:45:51;;;;;;;8.48;3.85;;;;;;;11.00;43.68;100704.34;4913039;29;20054;-80
2021/04/18 01:48:37;;;;;;;7.60;3.85;;;;;;;10.87;43.67;100710.72;4913790;29;20063;-80
2021/04/18 01:51:25;;;;;;;8.82;4.10;;;;;;;10.81;44.10;100696.47;4911815;29;20047;-81
2021/04/18 01:54:11;;;;;;;4.50;3.45;;;;;;;10.84;44.44;100706.72;4919344;29;20047;-80
2021/04/18 01:56:57;;;;;;;5.68;4.05;;;;;;;10.87;43.89;100714.22;4916169;29;20055;-80
2021/04/18 01:59:43;;;;;;;4.97;3.60;;;;;;;10.72;43.88;100703.78;4930534;29;20524;-80
2021/04/18 02:02:42;;;;;;;4.70;3.60;;;;;;;10.72;44.48;100709.22;4921180;29;20051;-79
2021/04/18 02:05:39;;;;;;;5.63;3.78;;;;;;;10.67;44.49;100704.75;4921053;29;20047;-79
2021/04/18 02:08:33;;;;;;;;;;;;;;;10.58;44.97;100706.66;4900677;29;20058;-79
2021/04/18 02:11:19;;;;;;;5.22;3.60;;;;;;;10.49;45.05;100705.81;4917411;29;19915;-80
2021/04/18 02:14:06;;;;;;;7.22;4.22;;;;;;;10.53;45.47;100706.78;4916888;29;20047;-79
2021/04/18 02:17:00;;;;;;;7.22;4.57;;;;;;;10.55;44.78;100710.00;4931731;29;20441;-80
2021/04/18 02:19:45;;;;;;;5.93;4.15;;;;;;;10.58;45.77;100703.91;4931479;29;20047;-80
2021/04/18 02:22:31;;;;;;;6.60;4.28;;;;;;;10.62;44.56;100707.59;4933590;29;20046;-79
2021/04/18 02:25:16;;;;;;;4.97;3.88;;;;;;;10.70;44.65;100701.41;4929250;29;20074;-80
2021/04/18 02:28:04;;;;;;;7.97;4.32;;;;;;;10.69;44.40;100688.13;4905648;29;20045;-80
2021/04/18 02:30:53;;;;;;;7.00;4.32;;;;;;;10.75;46.30;100699.66;4916148;29;20047;-80
2021/04/18 02:33:54;;;;;;;5.22;3.88;;;;;;;10.73;44.91;100689.09;4929100;29;20649;-79
2021/04/18 02:36:40;;;;;;;5.18;3.53;;;;;;;10.77;44.37;100690.03;4920208;29;20051;-79
2021/04/18 02:39:25;;;;;;;6.10;4.25;;;;;;;10.78;44.45;100694.38;4916756;29;20043;-80
2021/04/18 02:42:11;;;;;;;6.65;4.68;;;;;;;10.82;45.16;100692.63;4900163;29;20051;-80
2021/04/18 02:44:56;;;;;;;6.45;4.60;;;;;;;10.82;44.54;100697.28;4907014;29;20523;-79
2021/04/18 02:47:46;;;;;;;9.40;4.80;;;;;;;10.82;44.34;100698.06;4919320;29;20054;-80
2021/04/18 02:50:34;;;;;;;5.30;4.15;;;;;;;10.84;44.70;100695.84;4911791;29;20063;-80
2021/04/18 02:53:19;;;;;;;7.72;4.45;;;;;;;10.82;44.54;100694.56;4919901;29;20051;-80
2021/04/18 02:56:06;;;;;;;9.02;4.43;;;;;;;10.89;45.29;100697.59;4915319;29;20441;-80
2021/04/18 02:59:13;;;;;;;7.63;5.00;;;;;;;10.84;44.87;100693.13;4918995;29;20043;-80
2021/04/18 03:01:58;;;;;;;6.78;4.22;;;;;;;10.84;44.41;100695.84;4903325;29;20058;-79
2021/04/18 03:04:44;;;;;;;6.43;3.92;;;;;;;10.91;45.37;100698.09;4902957;29;20050;-80
2021/04/18 03:07:30;;;;;;;7.05;4.45;;;;;;;10.86;44.67;100693.59;4919652;29;20055;-80
2021/04/18 03:10:16;;;;;;;9.73;4.63;;;;;;;10.80;45.18;100688.63;4931210;29;20054;-80
2021/04/18 03:13:13;;;;;;;4.28;3.25;;;;;;;10.80;45.55;100705.75;4904712;29;20523;-80
2021/04/18 03:16:03;;;;;;;8.60;4.75;;;;;;;10.87;45.78;100695.19;4937376;29;20040;-80
2021/04/18 03:18:52;;;;;;;7.53;4.30;;;;;;;10.92;45.98;100700.47;4933075;29;20051;-80
2021/04/18 03:21:40;;;;;;;8.93;4.70;;;;;;;10.84;44.85;100701.28;4917792;29;20050;-80
2021/04/18 03:24:25;;;;;;;8.48;5.35;;;;;;;10.75;45.06;100695.03;4923894;29;20051;-80
2021/04/18 03:27:12;;;;;;;7.30;4.60;;;;;;;10.77;45.25;100700.94;4919985;29;20068;-80
2021/04/18 03:30:06;;;;;;;8.57;5.97;;;;;;;10.82;44.91;100700.78;4917033;29;20055;-80
2021/04/18 03:33:00;;;;;;;8.65;4.63;;;;;;;10.73;45.86;100686.38;4914650;29;20048;-80
2021/04/18 03:35:46;;;;;;;7.28;4.40;;;;;;;10.81;46.03;100698.41;4917300;29;20413;-80
2021/04/18 03:38:31;;;;;;;4.63;3.47;;;;;;;10.82;45.17;100706.22;4928642;29;20051;-79
2021/04/18 03:41:17;;;;;;;7.07;4.78;;;;;;;10.81;46.55;100698.41;4909173;29;20038;-78
2021/04/18 03:44:05;;;;;;;8.77;4.57;;;;;;;10.79;45.63;100698.69;4918670;29;20047;-80
2021/04/18 03:46:52;;;;;;;6.13;4.50;;;;;;;10.72;45.87;100698.34;4917306;29;20050;-78
2021/04/18 03:49:51;;;;;;;10.00;4.85;;;;;;;10.77;46.85;100700.16;4918081;29;20055;-80
2021/04/18 03:52:48;;;;;;;14.67;6.97;;;;;;;10.73;47.44;100700.75;4920091;29;20539;-79
2021/04/18 03:55:35;;;;;;;7.57;4.68;;;;;;;10.69;46.20;100704.44;4913231;29;20048;-78
2021/04/18 03:58:22;;;;;;;8.43;4.78;;;;;;;10.78;45.94;100705.25;4917633;29;20050;-80
2021/04/18 04:01:15;;;;;;;7.55;4.85;;;;;;;10.73;46.79;100705.41;4903253;29;20059;-80
2021/04/18 04:04:00;;;;;;;5.75;4.15;;;;;;;10.73;45.97;100706.19;4914291;29;20071;-80
2021/04/18 04:06:52;;;;;;;8.60;4.82;;;;;;;10.65;46.07;100707.00;4935118;29;20648;-80
2021/04/18 04:09:38;;;;;;;9.23;4.57;;;;;;;10.72;46.12;100701.88;4915906;29;20510;-80
2021/04/18 04:12:25;;;;;;;6.20;4.68;;;;;;;10.75;45.32;100707.81;4905952;29;20117;-80
2021/04/18 04:15:12;;;;;;;7.18;5.28;;;;;;;10.80;45.31;100705.75;4915046;29;20051;-80
2021/04/18 04:18:00;;;;;;;8.38;5.28;;;;;;;10.69;46.06;100707.97;4913847;29;20043;-80
2021/04/18 04:21:04;;;;;;;11.77;5.53;;;;;;;10.71;45.60;100707.66;4926655;29;20102;-80
2021/04/18 04:24:08;;;;;;;9.27;5.80;;;;;;;10.62;46.46;100698.66;4917468;29;20052;-79
2021/04/18 04:26:53;;;;;;;7.90;4.93;;;;;;;10.74;45.78;100704.28;4920836;29;20051;-80
2021/04/18 04:29:38;;;;;;;7.15;3.60;;;;;;;10.77;45.78;100706.38;4914687;29;20413;-77
2021/04/18 04:32:23;;;;;;;5.85;4.38;;;;;;;10.70;46.28;100711.47;4910804;29;20488;-79
2021/04/18 04:35:09;;;;;;;8.90;5.20;;;;;;;10.68;46.33;100714.50;4932340;29;20417;-80
2021/04/18 04:37:53;;;;;;;;;;;;;;;10.71;46.38;100710.38;4924860;29;20055;-80
2021/04/18 04:40:40;;;;;;;8.35;5.53;;;;;;;10.69;46.36;100715.31;4927131;29;19915;-85
2021/04/18 04:43:55;;;;;;;12.07;5.72;;;;;;;10.69;46.13;100720.75;4916356;29;20047;-86
2021/04/18 04:46:39;;;;;;;10.27;6.22;;;;;;;10.70;46.51;100719.66;4926411;29;20413;-85
2021/04/18 04:49:29;;;;;;;8.68;5.25;;;;;;;10.75;46.23;100714.06;4933988;29;20048;-86
2021/04/18 04:52:14;;;;;;;10.07;6.03;;;;;;;10.74;46.40;100709.72;4917096;29;20054;-86
2021/04/18 04:55:02;;;;;;;14.07;6.20;;;;;;;10.80;45.90;100721.25;4920651;29;20417;-86
2021/04/18 04:57:47;;;;;;;10.90;6.63;;;;;;;10.83;46.24;100720.63;4918440;29;20047;-86
2021/04/18 05:00:32;;;;;;;7.47;4.85;;;;;;;10.89;46.61;100716.63;4916742;29;20048;-83
2021/04/18 05:03:17;;;;;;;7.95;5.53;;;;;;;10.92;46.30;100724.97;4932974;29;20050;-86
2021/04/18 05:06:02;;;;;;;5.72;4.18;;;;;;;10.93;45.95;100721.13;4927702;29;20047;-85
2021/04/18 05:08:47;;;;;;;8.63;6.47;;;;;;;10.86;47.17;100712.66;4934927;23;20047;-81
2021/04/18 05:11:32;;;;;;;8.38;5.80;;;;;;;10.91;47.35;100719.84;4937462;29;20496;-81
2021/04/18 05:14:17;;;;;;;9.18;5.10;;;;;;;10.80;48.45;100722.06;4951967;28;20042;-81
2021/04/18 05:17:02;;;;;;;8.85;5.30;;;;;;;10.88;49.41;100732.16;4941205;29;20047;-81
2021/04/18 05:19:47;;;;;;;6.60;4.65;;;;;;;10.80;49.21;100726.72;4933324;29;20051;-81
2021/04/18 05:22:33;;;;;;;8.27;5.10;;;;;;;10.84;49.29;100730.38;4922439;29;20046;-81
2021/04/18 05:25:18;;;;;;;18.42;6.80;;;;;;;10.72;49.43;100731.00;4915062;29;20523;-81
2021/04/18 05:28:03;;;;;;;8.48;4.88;;;;;;;10.82;49.54;100746.25;4935868;29;20508;-81
2021/04/18 05:30:48;;;;;;;8.15;5.63;;;;;;;10.81;49.38;100737.28;4921682;29;20058;-81
2021/04/18 05:33:33;;;;;;;9.27;5.75;;;;;;;10.94;49.03;100735.53;4935785;29;20046;-81
2021/04/18 05:36:18;;;;;;;7.60;5.05;;;;;;;10.98;48.62;100744.66;4922538;29;20425;-81
2021/04/18 05:39:09;;;;;;;14.68;6.80;;;;;;;10.97;49.12;100748.53;4920900;29;20051;-81
2021/04/18 05:41:54;;;;;;;11.45;7.47;;;;;;;11.02;48.50;100745.66;4940905;29;20035;-82
2021/04/18 05:44:39;;;;;;;9.85;6.53;;;;;;;11.21;48.85;100748.06;4910705;29;20039;-81
2021/04/18 05:47:24;;;;;;;7.10;5.53;;;;;;;11.42;48.29;100754.50;4908991;29;20042;-81
2021/04/18 05:50:10;;;;;;;8.18;5.53;;;;;;;11.48;47.55;100755.94;4921009;29;20424;-81
2021/04/18 05:52:55;;;;;;;12.55;6.50;;;;;;;11.52;48.01;100765.88;4938565;29;20507;-81
2021/04/18 05:55:42;;;;;;;9.23;5.25;;;;;;;11.85;46.64;100763.47;4922302;29;20535;-81
2021/04/18 05:58:27;;;;;;;9.55;6.88;;;;;;;11.83;46.10;100759.50;4933727;29;20536;-81
2021/04/18 06:01:12;;;;;;;10.80;6.78;;;;;;;12.17;45.57;100761.34;4913093;29;20512;-81
2021/04/18 06:03:57;;;;;;;10.68;5.95;;;;;;;12.33;44.85;100754.25;4938178;29;20051;-82
2021/04/18 06:06:42;;;;;;;7.38;5.45;;;;;;;12.38;44.38;100754.06;4926412;29;20051;-82
2021/04/18 06:09:28;;;;;;;10.45;7.13;;;;;;;12.61;43.45;100755.41;4926048;29;20046;-82
2021/04/18 06:12:13;;;;;;;8.60;6.43;;;;;;;12.89;42.52;100760.44;4920159;29;20051;-82
2021/04/18 06:14:59;;;;;;;10.07;5.60;;;;;;;13.55;41.82;100759.53;4920629;29;20047;-82
2021/04/18 06:17:44;;;;;;;12.35;5.57;;;;;;;13.87;41.23;100752.50;4937957;29;20409;-82
2021/04/18 06:20:28;;;;;;;9.73;5.75;;;;;;;14.19;39.90;100761.81;4920185;29;20040;-82
2021/04/18 06:23:14;;;;;;;12.48;5.88;;;;;;;14.47;39.36;100760.09;4942867;28;20416;-82
2021/04/18 06:25:59;;;;;;;7.80;5.07;;;;;;;14.63;37.16;100762.16;4923889;29;20039;-82
2021/04/18 06:28:44;;;;;;;8.93;4.90;;;;;;;14.01;38.29;100761.22;4937435;29;20059;-81
2021/04/18 06:31:29;;;;;;;8.50;5.93;;;;;;;14.17;37.01;100763.31;4920192;29;20047;-82
2021/04/18 06:34:14;;;;;;;8.50;5.82;;;;;;;13.63;37.17;100758.66;4938705;29;20050;-82
2021/04/18 06:36:59;;;;;;;17.80;6.43;;;;;;;13.67;38.41;100764.25;4936895;29;20047;-80
2021/04/18 06:39:44;;;;;;;;;;;;;;;13.11;38.29;100758.22;4933570;29;20047;-80
2021/04/18 06:42:30;;;;;;;10.07;5.88;;;;;;;13.82;38.60;100768.28;4927889;29;19922;-81
2021/04/18 06:45:15;;;;;;;9.70;5.95;;;;;;;13.63;38.14;100766.84;4935959;29;20054;-80
2021/04/18 06:48:02;;;;;;;8.35;5.40;;;;;;;13.27;38.03;100761.97;4920152;29;20043;-80
2021/04/18 06:50:48;;;;;;;10.05;5.80;;;;;;;13.97;37.80;100764.94;4919265;29;20066;-81
2021/04/18 06:53:33;;;;;;;8.02;5.70;;;;;;;14.24;36.85;100772.53;4924275;29;20031;-80
2021/04/18 06:56:18;;;;;;;7.97;5.70;;;;;;;14.23;36.83;100767.41;4920458;29;20051;-80
2021/04/18 06:59:04;;;;;;;7.82;5.15;;;;;;;13.81;37.13;100766.72;4926453;29;20054;-80
2021/04/18 07:01:49;;;;;;;8.38;6.22;;;;;;;14.30;36.27;100765.72;4926954;29;20062;-80
2021/04/18 07:04:34;;;;;;;7.13;4.45;;;;;;;15.22;35.09;100766.03;4933324;29;20400;-81
2021/04/18 07:07:27;;;;;;;6.78;4.32;;;;;;;15.70;34.03;100770.59;4932429;29;20412;-81
2021/04/18 07:10:25;;;;;;;10.45;6.70;;;;;;;14.88;35.68;100770.03;4921215;29;20067;-81
2021/04/18 07:13:15;;;;;;;8.77;5.85;;;;;;;17.65;31.27;100769.22;4921043;29;20063;-81
2021/04/18 07:16:00;;;;;;;11.05;6.70;;;;;;;18.50;29.32;100779.09;4921067;29;20039;-81
2021/04/18 07:18:45;;;;;;;;;;;;;;;17.49;29.60;100771.97;4921906;29;20115;-81
2021/04/18 07:21:51;;;;;;;8.18;5.85;;;;;;;21.77;24.13;100776.81;4923110;29;20391;-81
2021/04/18 07:24:54;;;;;;;10.27;7.13;;;;;;;20.61;24.84;100782.38;4911103;29;20051;-82
2021/04/18 07:27:52;;;;;;;11.10;6.20;;;;;;;19.55;25.97;100782.75;4920653;29;20036;-82
2021/04/18 07:30:49;;;;;;;9.18;5.95;;;;;;;23.65;22.05;100777.72;4917715;29;20044;-82
2021/04/18 07:33:34;;;;;;;7.80;6.07;;;;;;;24.43;20.47;100782.13;4923207;29;20160;-82
2021/04/18 07:36:19;;;;;;;10.90;6.38;;;;;;;21.90;23.45;100782.78;4920716;29;20050;-80
2021/04/18 07:39:06;;;;;;;10.25;6.35;;;;;;;19.86;25.31;100769.75;4926288;29;20417;-79
2021/04/18 07:41:54;;;;;;;8.70;6.13;;;;;;;18.29;27.94;100772.03;4937537;29;20047;-82
2021/04/18 07:44:39;;;;;;;8.35;6.18;;;;;;;15.23;32.13;100761.34;4934023;29;20051;-80
2021/04/18 07:47:26;;;;;;;9.57;6.65;;;;;;;17.51;29.58;100764.19;4934984;29;20067;-80
2021/04/18 07:50:16;;;;;;;8.38;6.20;;;;;;;17.50;29.54;100768.09;4926853;29;20046;-81
2021/04/18 07:53:02;;;;;;;8.98;6.40;;;;;;;17.40;29.73;100774.16;4934280;29;20515;-80
2021/04/18 07:55:46;;;;;;;;;;;;;;;19.42;26.55;100780.56;4922656;29;20051;-80
2021/04/18 07:58:32;;;;;;;14.10;6.53;;;;;;;21.50;23.01;100775.50;4917352;29;19915;-80
2021/04/18 08:01:17;;;;;;;9.93;6.47;;;;;;;21.02;22.85;100774.81;4935271;29;20032;-81
2021/04/18 08:04:02;;;;;;;;;;;;;;;22.40;21.80;100779.00;4923118;29;20066;-81
2021/04/18 08:06:47;;;;;;;9.10;5.73;;;;;;;21.30;23.48;100775.81;4918036;29;19918;-81
2021/04/18 08:09:32;;;;;;;8.15;5.50;;;;;;;20.09;26.39;100784.19;4919895;29;20507;-81
2021/04/18 08:12:18;;;;;;;9.00;6.35;;;;;;;21.47;25.00;100779.06;4922804;29;20047;-81
2021/04/18 08:15:13;;;;;;;9.88;6.47;;;;;;;19.91;26.69;100783.97;4924908;29;20543;-81
2021/04/18 08:18:06;;;;;;;8.82;6.65;;;;;;;18.19;27.74;100780.09;4934437;29;20038;-81
2021/04/18 08:20:51;;;;;;;12.13;6.20;;;;;;;18.72;27.26;100783.84;4932418;29;20408;-81
2021/04/18 08:23:38;;;;;;;;;;;;;;;20.82;24.19;100793.63;4918552;29;20054;-80
2021/04/18 08:26:25;;;;;;;10.68;7.05;;;;;;;22.48;22.13;100788.13;4920532;29;19918;-82
2021/04/18 08:29:13;;;;;;;8.85;6.75;;;;;;;19.23;26.79;100792.50;4927354;29;20074;-83
2021/04/18 08:32:01;;;;;;;12.02;7.82;;;;;;;19.14;26.28;100781.75;4920583;29;20047;-82
2021/04/18 08:34:45;;;;;;;10.13;6.63;;;;;;;17.53;30.23;100781.91;4919677;29;20086;-81
2021/04/18 08:37:30;;;;;;;;;;;;;;;16.27;32.67;100786.69;4939151;29;20047;-80
2021/04/18 08:40:15;;;;;;;9.65;6.80;;;;;;;16.65;30.58;100788.09;4934834;29;19915;-81
2021/04/18 08:43:17;;;;;;;;;;;;;;;16.43;31.16;100792.19;4918812;29;20436;-80
2021/04/18 08:46:02;;;;;;;10.10;7.18;;;;;;;16.02;32.08;100793.44;4920976;29;19919;-82
2021/04/18 08:48:47;;;;;;;11.27;6.85;;;;;;;15.20;32.94;100784.72;4932271;29;20051;-81
2021/04/18 08:51:32;;;;;;;7.50;5.68;;;;;;;16.02;31.57;100787.97;4938458;29;20051;-81
2021/04/18 08:54:23;;;;;;;10.45;7.00;;;;;;;15.63;31.86;100791.53;4933237;29;20062;-82
2021/04/18 08:57:14;;;;;;;12.38;7.45;;;;;;;17.79;28.26;100786.00;4925690;29;20087;-81
2021/04/18 09:00:03;;;;;;;9.40;6.80;;;;;;;23.28;21.14;100794.06;4937703;29;20048;-81
2021/04/18 09:02:55;;;;;;;11.27;6.78;;;;;;;25.53;19.32;100805.00;4925906;29;20047;-78
2021/04/18 09:05:41;;;;;;;8.75;6.40;;;;;;;24.12;20.46;100801.34;4934063;29;20058;-79
2021/04/18 09:08:26;;;;;;;9.80;6.50;;;;;;;25.29;18.98;100805.25;4925360;29;20416;-79
2021/04/18 09:11:12;;;;;;;8.75;6.90;;;;;;;26.88;17.21;100792.00;4928586;29;20519;-80
2021/04/18 09:13:59;;;;;;;10.90;7.78;;;;;;;25.15;18.70;100797.81;4917793;29;20062;-79
2021/04/18 09:16:44;;;;;;;12.07;6.53;;;;;;;27.85;16.02;100795.38;4926821;29;20050;-81
2021/04/18 09:19:30;;;;;;;11.48;6.15;;;;;;;24.28;19.92;100786.94;4933044;29;20043;-80
2021/04/18 09:22:37;;;;;;;9.18;6.10;;;;;;;23.55;20.33;100784.13;4924559;29;20055;-80
2021/04/18 09:25:21;;;;;;;12.13;6.97;;;;;;;20.41;25.44;100785.34;4942613;29;20047;-80
2021/04/18 09:28:12;;;;;;;8.30;6.50;;;;;;;18.97;26.14;100785.03;4921430;29;20540;-80
2021/04/18 09:31:07;;;;;;;11.35;6.47;;;;;;;20.98;24.54;100777.53;4936538;29;20054;-80
2021/04/18 09:34:04;;;;;;;8.15;6.00;;;;;;;22.83;21.89;100787.38;4939222;29;20051;-80
2021/04/18 09:36:55;;;;;;;8.70;6.75;;;;;;;23.86;20.20;100788.75;4923779;29;20039;-81
2021/04/18 09:39:41;;;;;;;8.93;6.75;;;;;;;22.67;21.37;100796.06;4925015;29;20412;-80
2021/04/18 09:42:33;;;;;;;9.52;7.53;;;;;;;21.82;22.80;100790.28;4910505;29;20043;-81
2021/04/18 09:45:22;;;;;;;11.40;7.38;;;;;;;21.97;23.18;100780.88;4919954;29;20512;-80
2021/04/18 09:48:15;;;;;;;12.40;7.68;;;;;;;18.65;27.81;100776.25;4921180;29;20501;-80
2021/04/18 09:51:03;;;;;;;10.95;8.27;;;;;;;17.78;29.01;100784.41;4934627;29;20051;-80
2021/04/18 09:54:02;;;;;;;11.18;7.78;;;;;;;17.24;30.26;100776.94;4941254;29;20043;-79
2021/04/18 09:57:16;;;;;;;10.93;7.88;;;;;;;17.49;30.79;100778.28;4927996;29;20114;-81
2021/04/18 10:00:17;;;;;;;13.70;7.70;;;;;;;17.49;32.14;100788.47;4907826;29;20064;-81
2021/04/18 10:03:08;;;;;;;12.88;7.43;;;;;;;17.49;31.27;100786.53;4929616;29;20048;-81
2021/04/18 10:05:53;;;;;;;9.82;7.10;;;;;;;16.65;31.68;100779.84;4925316;29;20043;-82
2021/04/18 10:08:39;;;;;;;13.18;7.93;;;;;;;15.87;32.51;100780.47;4942865;29;20063;-80
2021/04/18 10:11:24;;;;;;;11.93;8.48;;;;;;;15.50;33.70;100781.69;4925632;29;20040;-80
2021/04/18 10:14:19;;;;;;;17.40;8.07;;;;;;;15.25;33.80;100781.75;4932024;29;20060;-80
2021/04/18 10:17:05;;;;;;;15.07;8.23;;;;;;;15.41;34.01;100790.06;4947321;29;20066;-80
2021/04/18 10:19:51;;;;;;;9.20;6.18;;;;;;;15.28;35.61;100789.31;4930364;29;20043;-80
2021/04/18 10:22:57;;;;;;;17.50;8.68;;;;;;;15.16;35.29;100786.56;4945381;28;20059;-80
2021/04/18 10:25:42;;;;;;;12.18;8.30;;;;;;;15.03;35.55;100784.19;4957445;28;20043;-80
2021/04/18 10:28:27;;;;;;;12.93;9.57;;;;;;;14.62;37.03;100779.72;4940094;29;20055;-80
2021/04/18 10:31:14;;;;;;;9.27;6.90;;;;;;;14.42;38.69;100790.41;4932036;29;20047;-80
2021/04/18 10:33:59;;;;;;;14.68;9.10;;;;;;;14.44;38.58;100782.66;4944586;28;20524;-80
2021/04/18 10:36:46;;;;;;;19.63;11.73;;;;;;;14.55;39.83;100789.28;4946104;28;20047;-80
2021/04/18 10:39:35;;;;;;;34.50;22.63;;;;;;;14.49;39.99;100790.66;4930787;29;20043;-80
2021/04/18 10:42:20;;;;;;;24.77;16.88;;;;;;;14.16;42.38;100789.06;4946712;28;20063;-80
2021/04/18 10:45:06;;;;;;;19.27;10.43;;;;;;;14.42;43.52;100793.16;4928473;29;20031;-80
2021/04/18 10:47:51;;;;;;;16.45;10.35;;;;;;;13.71;44.98;100787.84;4925108;29;20059;-80
2021/04/18 10:50:36;;;;;;;;;;;;;;;13.61;45.84;100798.41;4941455;29;20040;-80
2021/04/18 10:53:21;;;;;;;13.93;9.75;;;;;;;13.67;47.32;100810.69;4925815;29;19919;-80
2021/04/18 10:56:06;;;;;;;17.38;11.18;;;;;;;13.76;44.53;100816.13;4922728;29;20050;-80
2021/04/18 10:58:51;;;;;;;12.82;8.90;;;;;;;13.27;47.50;100815.81;4928533;29;20048;-80
2021/04/18 11:01:37;;;;;;;18.50;12.70;;;;;;;13.21;49.13;100825.31;4927034;29;20051;-79
2021/04/18 11:04:23;;;;;;;15.50;9.65;;;;;;;12.82;51.97;100838.16;4939951;29;20048;-79
2021/04/18 11:07:09;;;;;;;13.30;9.68;;;;;;;12.82;50.42;100840.09;4932416;29;20040;-80
2021/04/18 11:09:54;;;;;;;18.90;11.30;;;;;;;12.51;53.74;100837.63;4929375;29;20055;-80
2021/04/18 11:12:42;;;;;;;12.82;8.50;;;;;;;12.72;54.52;100846.69;4926370;29;20036;-79
2021/04/18 11:15:34;;;;;;;14.15;9.98;;;;;;;12.70;52.97;100827.13;4976949;23;20634;-77
2021/04/18 11:18:21;;;;;;;15.40;9.20;;;;;;;13.08;51.16;100848.16;4955975;28;20435;-76
2021/04/18 11:21:06;;;;;;;13.07;9.23;;;;;;;13.01;53.43;100836.94;4968138;28;20392;-76
2021/04/18 11:23:53;;;;;;;14.15;10.73;;;;;;;12.98;54.15;100838.41;4941731;28;20053;-75
2021/04/18 11:26:38;;;;;;;16.92;11.60;;;;;;;13.17;51.92;100833.38;4958061;28;20034;-75
2021/04/18 11:29:24;;;;;;;18.40;11.82;;;;;;;12.94;52.33;100834.75;4970930;28;20043;-76
2021/04/18 11:32:11;;;;;;;10.13;7.40;;;;;;;13.20;54.89;100834.66;4954941;28;20042;-76
2021/04/18 11:34:56;;;;;;;12.20;9.25;;;;;;;13.49;53.66;100834.63;4969657;28;20408;-76
2021/04/18 11:37:41;;;;;;;18.10;13.05;;;;;;;13.65;53.28;100832.13;4953744;28;20039;-75
2021/04/18 11:40:27;;;;;;;10.43;7.85;;;;;;;14.40;48.83;100817.31;4962790;28;20040;-76
2021/04/18 11:43:12;;;;;;;12.60;9.07;;;;;;;14.44;48.49;100817.41;4955814;28;20042;-75
2021/04/18 11:45:57;;;;;;;11.15;8.50;;;;;;;14.60;47.26;100815.63;4974962;28;20046;-75
2021/04/18 11:48:42;;;;;;;8.70;6.43;;;;;;;15.04;45.87;100811.22;4959539;28;20042;-75
2021/04/18 11:51:28;;;;;;;8.70;6.13;;;;;;;16.04;44.08;100810.38;4973229;28;20051;-75
2021/04/18 11:54:13;;;;;;;11.57;8.30;;;;;;;16.87;41.52;100803.94;4968290;28;20183;-76
2021/04/18 11:56:58;;;;;;;11.10;7.53;;;;;;;18.27;38.75;100801.91;4966050;28;20034;-76
2021/04/18 11:59:43;;;;;;;7.95;5.85;;;;;;;19.01;37.03;100790.59;4970921;28;20413;-74
2021/04/18 12:02:28;;;;;;;;;;;;;;;18.15;39.52;100793.78;4947604;28;20058;-76
2021/04/18 12:05:13;;;;;;;9.98;6.50;;;;;;;17.32;40.13;100781.44;4959280;28;19915;-78
2021/04/18 12:08:00;;;;;;;9.85;7.20;;;;;;;17.63;40.22;100797.06;4977169;28;20061;-76
2021/04/18 12:10:44;;;;;;;9.43;5.78;;;;;;;18.70;35.91;100788.91;4961010;28;20050;-76
2021/04/18 12:13:29;;;;;;;10.50;7.32;;;;;;;19.24;35.39;100788.59;4972602;28;20062;-75
2021/04/18 12:16:15;;;;;;;9.27;5.65;;;;;;;18.83;35.22;100789.53;4952857;28;20051;-75
2021/04/18 12:19:00;;;;;;;11.70;7.05;;;;;;;20.20;31.03;100795.34;4950687;28;20046;-75
2021/04/18 12:21:45;;;;;;;9.05;7.00;;;;;;;18.69;36.45;100785.34;4948134;28;20538;-76
2021/04/18 12:24:30;;;;;;;12.15;8.57;;;;;;;18.31;37.88;100785.44;4966653;28;20123;-76
2021/04/18 12:27:15;;;;;;;11.27;7.95;;;;;;;17.88;37.66;100787.38;4952743;28;20047;-76
2021/04/18 12:30:00;;;;;;;7.88;6.22;;;;;;;21.90;31.40;100791.09;4966073;28;20119;-76
2021/04/18 12:32:47;;;;;;;10.18;8.13;;;;;;;22.49;30.77;100786.94;4962197;28;20628;-76
2021/04/18 12:35:34;;;;;;;11.38;8.35;;;;;;;24.78;27.28;100792.97;4964081;28;20035;-76
2021/04/18 12:38:18;;;;;;;10.30;7.90;;;;;;;22.39;27.32;100785.75;4951458;28;20412;-78
2021/04/18 12:41:04;;;;;;;9.02;6.90;;;;;;;20.07;30.67;100792.03;4951779;28;20053;-78
2021/04/18 12:43:48;;;;;;;;;;;;;;;19.67;32.05;100798.25;4952909;28;20092;-77
2021/04/18 12:46:33;;;;;;;9.25;5.30;;;;;;;22.35;26.33;100786.94;4952005;28;19939;-76
2021/04/18 12:49:17;;;;;;;8.23;5.20;;;;;;;22.05;25.46;100793.56;4947868;28;20054;-78
2021/04/18 12:52:02;;;;;;;8.57;6.55;;;;;;;20.80;28.86;100794.00;4967920;28;20046;-77
2021/04/18 12:54:47;;;;;;;6.97;5.75;;;;;;;19.39;31.68;100787.63;4963606;28;20046;-77
2021/04/18 12:57:34;;;;;;;8.80;6.90;;;;;;;19.06;31.60;100782.00;4966082;28;20050;-76